createdAt,value
2022-08-28T00:01:01.742Z,15.96
2022-08-28T00:03:28.928Z,15.95
2022-08-28T00:05:57.351Z,15.91
2022-08-28T00:08:24.513Z,15.90
2022-08-28T00:10:52.295Z,15.90
2022-08-28T00:13:23.283Z,15.85
2022-08-28T00:15:56.545Z,15.83
2022-08-28T00:18:24.837Z,15.82
2022-08-28T00:20:52.338Z,15.77
2022-08-28T00:23:20.068Z,15.76
2022-08-28T00:25:47.301Z,15.73
2022-08-28T00:28:23.503Z,15.70
2022-08-28T00:30:55.736Z,15.66
2022-08-28T00:33:27.920Z,15.63
2022-08-28T00:35:57.040Z,15.59
2022-08-28T00:38:27.194Z,15.55
2022-08-28T00:41:00.738Z,15.51
2022-08-28T00:43:41.660Z,15.48
2022-08-28T00:46:17.393Z,15.45
2022-08-28T00:48:44.393Z,15.45
2022-08-28T00:51:34.379Z,15.43
2022-08-28T00:54:06.898Z,15.42
2022-08-28T00:56:37.919Z,15.40
2022-08-28T00:59:10.356Z,15.40
2022-08-28T01:01:39.244Z,15.40
2022-08-28T01:04:07.390Z,15.39
2022-08-28T01:06:36.257Z,15.35
2022-08-28T01:09:05.700Z,15.31
2022-08-28T01:11:33.483Z,15.30
2022-08-28T01:14:02.945Z,15.27
2022-08-28T01:16:33.811Z,15.24
2022-08-28T01:19:05.746Z,15.23
2022-08-28T01:21:35.374Z,15.20
2022-08-28T01:24:11.843Z,15.18
2022-08-28T01:26:38.734Z,15.16
2022-08-28T01:29:08.546Z,15.15
2022-08-28T01:31:38.539Z,15.10
2022-08-28T01:34:08.045Z,15.06
2022-08-28T01:36:35.915Z,15.04
2022-08-28T01:39:20.561Z,14.99
2022-08-28T01:41:52.046Z,14.96
2022-08-28T01:44:24.877Z,14.92
2022-08-28T01:46:54.926Z,14.90
2022-08-28T01:49:22.598Z,14.87
2022-08-28T01:51:49.870Z,14.83
2022-08-28T01:54:19.982Z,14.79
2022-08-28T01:56:47.807Z,14.77
2022-08-28T01:59:15.647Z,14.74
2022-08-28T02:01:44.439Z,14.70
2022-08-28T02:04:12.330Z,14.67
2022-08-28T02:06:39.348Z,14.61
2022-08-28T02:09:07.762Z,14.59
2022-08-28T02:11:46.385Z,14.56
2022-08-28T02:14:13.725Z,14.50
2022-08-28T02:16:40.639Z,14.46
2022-08-28T02:19:07.524Z,14.41
2022-08-28T02:21:35.524Z,14.37
2022-08-28T02:24:02.461Z,14.32
2022-08-28T02:26:30.389Z,14.27
2022-08-28T02:28:58.884Z,14.21
2022-08-28T02:31:27.566Z,14.17
2022-08-28T02:33:55.555Z,14.16
2022-08-28T02:36:23.286Z,14.15
2022-08-28T02:38:56.859Z,14.14
2022-08-28T02:41:25.308Z,14.11
2022-08-28T02:43:52.400Z,14.10
2022-08-28T02:46:19.258Z,14.11
2022-08-28T02:48:46.183Z,14.11
2022-08-28T02:51:14.943Z,14.09
2022-08-28T02:53:42.759Z,14.08
2022-08-28T02:56:10.498Z,14.06
2022-08-28T02:58:39.354Z,14.05
2022-08-28T03:01:10.873Z,14.05
2022-08-28T03:03:40.810Z,14.03
2022-08-28T03:06:09.729Z,14.03
2022-08-28T03:08:36.711Z,14.03
2022-08-28T03:11:03.558Z,14.02
2022-08-28T03:13:30.757Z,14.00
2022-08-28T03:15:59.001Z,13.99
2022-08-28T03:18:30.117Z,13.97
2022-08-28T03:20:57.017Z,13.97
2022-08-28T03:23:27.604Z,13.95
2022-08-28T03:26:07.639Z,13.93
2022-08-28T03:28:40.357Z,13.94
2022-08-28T03:31:09.942Z,13.94
2022-08-28T03:33:37.216Z,13.92
2022-08-28T03:36:04.864Z,13.90
2022-08-28T03:38:32.282Z,13.89
2022-08-28T03:40:59.485Z,13.87
2022-08-28T03:43:27.351Z,13.87
2022-08-28T03:46:00.699Z,13.85
2022-08-28T03:48:31.685Z,13.82
2022-08-28T03:51:00.542Z,13.82
2022-08-28T03:53:29.676Z,13.84
2022-08-28T03:55:58.070Z,13.83
2022-08-28T03:58:27.387Z,13.83
2022-08-28T04:00:55.494Z,13.83
2022-08-28T04:03:22.537Z,13.81
2022-08-28T04:05:49.450Z,13.81
2022-08-28T04:08:19.439Z,13.80
2022-08-28T04:10:48.528Z,13.78
2022-08-28T04:13:18.503Z,13.77
2022-08-28T04:15:45.767Z,13.75
2022-08-28T04:18:13.282Z,13.75
2022-08-28T04:20:40.297Z,13.76
2022-08-28T04:23:09.884Z,13.74
2022-08-28T04:25:40.124Z,13.75
2022-08-28T04:28:06.932Z,13.74
2022-08-28T04:30:33.778Z,13.74
2022-08-28T04:33:00.593Z,13.74
2022-08-28T04:35:27.453Z,13.75
2022-08-28T04:37:57.534Z,13.73
2022-08-28T04:40:25.727Z,13.74
2022-08-28T04:42:52.650Z,13.75
2022-08-28T04:45:19.505Z,13.72
2022-08-28T04:47:46.409Z,13.70
2022-08-28T04:50:13.243Z,13.67
2022-08-28T04:52:40.086Z,13.64
2022-08-28T04:55:07.742Z,13.64
2022-08-28T04:57:36.377Z,13.63
2022-08-28T05:00:06.960Z,13.63
2022-08-28T05:02:33.869Z,13.60
2022-08-28T05:05:00.785Z,13.59
2022-08-28T05:07:27.681Z,13.58
2022-08-28T05:09:54.644Z,13.58
2022-08-28T05:12:22.165Z,13.58
2022-08-28T05:14:49.738Z,13.57
2022-08-28T05:17:16.555Z,13.56
2022-08-28T05:19:43.838Z,13.54
2022-08-28T05:22:11.117Z,13.50
2022-08-28T05:24:40.158Z,13.46
2022-08-28T05:27:08.637Z,13.48
2022-08-28T05:29:35.738Z,13.47
2022-08-28T05:32:03.538Z,13.50
2022-08-28T05:34:31.337Z,13.54
2022-08-28T05:36:58.215Z,13.53
2022-08-28T05:39:25.121Z,13.54
2022-08-28T05:41:52.006Z,13.54
2022-08-28T05:44:19.651Z,13.56
2022-08-28T05:46:49.262Z,13.60
2022-08-28T05:49:19.476Z,13.66
2022-08-28T05:51:47.000Z,13.71
2022-08-28T05:54:15.679Z,13.74
2022-08-28T05:56:44.836Z,13.77
2022-08-28T05:59:13.801Z,13.83
2022-08-28T06:01:45.470Z,13.88
2022-08-28T06:04:25.533Z,13.91
2022-08-28T06:06:53.120Z,13.97
2022-08-28T06:09:28.950Z,14.02
2022-08-28T06:12:02.711Z,14.09
2022-08-28T06:14:30.462Z,14.17
2022-08-28T06:16:58.493Z,14.23
2022-08-28T06:19:27.853Z,14.29
2022-08-28T06:21:58.384Z,14.37
2022-08-28T06:24:28.042Z,14.44
2022-08-28T06:26:58.166Z,14.50
2022-08-28T06:29:27.628Z,14.60
2022-08-28T06:31:58.658Z,14.69
2022-08-28T06:34:26.778Z,14.80
2022-08-28T06:36:54.572Z,14.89
2022-08-28T06:39:22.077Z,14.97
2022-08-28T06:41:49.083Z,15.07
2022-08-28T06:44:20.001Z,15.16
2022-08-28T06:46:49.903Z,15.29
2022-08-28T06:49:16.879Z,15.40
2022-08-28T06:51:43.880Z,15.50
2022-08-28T06:54:10.787Z,15.59
2022-08-28T06:56:38.534Z,15.71
2022-08-28T06:59:05.569Z,15.81
2022-08-28T07:01:37.320Z,15.87
2022-08-28T07:04:10.791Z,15.96
2022-08-28T07:06:46.772Z,16.08
2022-08-28T07:09:14.170Z,16.22
2022-08-28T07:11:48.949Z,16.38
2022-08-28T07:14:15.915Z,16.54
2022-08-28T07:16:44.422Z,16.68
2022-08-28T07:19:13.244Z,16.86
2022-08-28T07:21:44.645Z,17.05
2022-08-28T07:24:14.718Z,17.15
2022-08-28T07:26:43.638Z,17.24
2022-08-28T07:29:11.865Z,17.38
2022-08-28T07:31:44.360Z,17.45
2022-08-28T07:34:14.094Z,17.51
2022-08-28T07:36:41.860Z,17.61
2022-08-28T07:39:10.797Z,17.86
2022-08-28T07:41:42.309Z,18.18
2022-08-28T07:44:31.496Z,18.99
2022-08-28T07:47:04.153Z,19.94
2022-08-28T07:49:31.564Z,20.62
2022-08-28T07:51:58.470Z,21.12
2022-08-28T07:54:25.464Z,21.53
2022-08-28T07:56:52.769Z,21.82
2022-08-28T07:59:20.275Z,22.21
2022-08-28T08:01:51.564Z,22.16
2022-08-28T08:04:22.750Z,22.06
2022-08-28T08:06:55.605Z,21.91
2022-08-28T08:09:24.857Z,21.98
2022-08-28T08:11:51.729Z,21.81
2022-08-28T08:14:18.598Z,21.43
2022-08-28T08:16:47.627Z,21.12
2022-08-28T08:19:16.944Z,20.98
2022-08-28T08:21:48.007Z,20.99
2022-08-28T08:24:20.753Z,21.00
2022-08-28T08:26:59.445Z,20.89
2022-08-28T08:29:35.697Z,20.68
2022-08-28T08:32:09.383Z,20.45
2022-08-28T08:34:41.235Z,20.18
2022-08-28T08:37:09.150Z,19.92
2022-08-28T08:39:37.691Z,19.70
2022-08-28T08:42:19.341Z,19.55
2022-08-28T08:44:48.695Z,19.48
2022-08-28T08:47:43.428Z,19.46
2022-08-28T08:50:14.349Z,19.46
2022-08-28T08:53:25.336Z,19.61
2022-08-28T08:55:57.033Z,19.61
2022-08-28T08:58:29.835Z,19.64
2022-08-28T09:01:09.689Z,19.84
2022-08-28T09:04:29.349Z,20.18
2022-08-28T09:07:21.482Z,20.42
2022-08-28T09:09:56.017Z,20.68
2022-08-28T09:12:26.638Z,20.92
2022-08-28T09:15:10.099Z,21.20
2022-08-28T09:17:46.899Z,21.55
2022-08-28T09:20:21.461Z,22.16
2022-08-28T09:23:00.759Z,22.76
2022-08-28T09:25:52.286Z,22.91
2022-08-28T09:28:26.690Z,22.95
2022-08-28T09:31:15.793Z,22.95
2022-08-28T09:33:51.345Z,22.78
2022-08-28T09:36:36.398Z,22.42
2022-08-28T09:39:05.959Z,22.00
2022-08-28T09:41:57.092Z,21.88
2022-08-28T09:44:24.193Z,21.70
2022-08-28T09:46:52.470Z,21.67
2022-08-28T09:49:32.992Z,21.47
2022-08-28T09:52:24.602Z,21.45
2022-08-28T09:54:52.779Z,21.52
2022-08-28T09:57:19.604Z,21.73
2022-08-28T09:59:46.465Z,22.04
2022-08-28T10:02:46.530Z,22.37
2022-08-28T10:05:18.714Z,22.59
2022-08-28T10:08:08.463Z,22.68
2022-08-28T10:10:49.526Z,22.86
2022-08-28T10:13:39.709Z,22.90
2022-08-28T10:16:30.129Z,22.97
2022-08-28T10:19:12.130Z,23.02
2022-08-28T10:21:56.765Z,23.16
2022-08-28T10:24:49.629Z,23.36
2022-08-28T10:28:02.041Z,23.38
2022-08-28T10:30:39.444Z,23.10
2022-08-28T10:33:38.653Z,22.84
2022-08-28T10:36:33.514Z,22.68
2022-08-28T10:39:26.397Z,22.67
2022-08-28T10:42:03.053Z,22.90
2022-08-28T10:44:51.826Z,22.89
2022-08-28T10:47:23.566Z,22.82
2022-08-28T10:50:02.606Z,22.73
2022-08-28T10:52:47.973Z,22.73
2022-08-28T10:55:54.104Z,22.71
2022-08-28T10:58:26.353Z,22.82
2022-08-28T11:01:08.851Z,22.80
2022-08-28T11:03:51.510Z,22.75
2022-08-28T11:06:41.969Z,22.70
2022-08-28T11:09:40.067Z,22.66
2022-08-28T11:12:29.581Z,22.64
2022-08-28T11:14:56.492Z,22.63
2022-08-28T11:17:25.178Z,22.56
2022-08-28T11:20:24.946Z,22.50
2022-08-28T11:23:20.978Z,22.84
2022-08-28T11:25:59.533Z,23.23
2022-08-28T11:28:27.144Z,23.36
2022-08-28T11:31:06.010Z,23.49
2022-08-28T11:33:52.895Z,23.61
2022-08-28T11:36:22.552Z,23.67
2022-08-28T11:38:52.068Z,23.73
2022-08-28T11:42:13.676Z,24.00
2022-08-28T11:44:44.893Z,24.49
2022-08-28T11:47:33.940Z,24.73
2022-08-28T11:50:25.502Z,24.39
2022-08-28T11:53:39.207Z,24.13
2022-08-28T11:56:44.784Z,24.06
2022-08-28T11:59:55.701Z,24.17
2022-08-28T12:02:40.885Z,24.38
2022-08-28T12:05:16.703Z,24.42
2022-08-28T12:07:49.954Z,24.17
2022-08-28T12:10:44.611Z,23.92
2022-08-28T12:13:52.485Z,24.10
2022-08-28T12:16:19.471Z,24.50
2022-08-28T12:18:49.358Z,24.75
2022-08-28T12:21:25.905Z,24.68
2022-08-28T12:24:09.103Z,24.42
2022-08-28T12:26:45.056Z,24.16
2022-08-28T12:29:30.676Z,24.02
2022-08-28T12:32:40.715Z,24.16
2022-08-28T12:35:22.782Z,24.69
2022-08-28T12:37:55.928Z,25.24
2022-08-28T12:40:29.455Z,25.43
2022-08-28T12:43:08.064Z,25.28
2022-08-28T12:45:54.071Z,25.06
2022-08-28T12:48:32.364Z,24.79
2022-08-28T12:51:08.009Z,25.00
2022-08-28T12:53:45.937Z,25.30
2022-08-28T12:56:17.816Z,25.09
2022-08-28T12:58:47.088Z,24.76
2022-08-28T13:01:33.905Z,24.43
2022-08-28T13:04:34.767Z,24.11
2022-08-28T13:07:13.917Z,23.98
2022-08-28T13:09:52.657Z,24.29
2022-08-28T13:12:22.952Z,24.88
2022-08-28T13:15:03.224Z,25.27
2022-08-28T13:18:03.158Z,25.25
2022-08-28T13:20:37.243Z,24.87
2022-08-28T13:23:05.583Z,24.45
2022-08-28T13:25:37.813Z,24.19
2022-08-28T13:28:14.563Z,23.95
2022-08-28T13:30:41.499Z,23.78
2022-08-28T13:33:24.374Z,23.78
2022-08-28T13:35:53.795Z,24.05
2022-08-28T13:38:24.009Z,24.87
2022-08-28T13:40:59.605Z,25.74
2022-08-28T13:43:43.230Z,25.91
2022-08-28T13:46:10.325Z,25.63
2022-08-28T13:48:37.178Z,25.27
2022-08-28T13:51:17.638Z,24.79
2022-08-28T13:53:48.599Z,24.47
2022-08-28T13:56:17.337Z,24.16
2022-08-28T13:58:44.718Z,23.93
2022-08-28T14:01:30.588Z,23.75
2022-08-28T14:04:06.470Z,23.68
2022-08-28T14:06:33.279Z,23.58
2022-08-28T14:09:00.115Z,23.50
2022-08-28T14:11:26.901Z,23.55
2022-08-28T14:13:55.826Z,23.82
2022-08-28T14:16:25.720Z,24.05
2022-08-28T14:18:55.507Z,24.50
2022-08-28T14:21:24.679Z,24.90
2022-08-28T14:23:51.705Z,25.40
2022-08-28T14:26:18.608Z,25.70
2022-08-28T14:28:45.475Z,26.13
2022-08-28T14:31:14.799Z,26.66
2022-08-28T14:33:45.431Z,27.27
2022-08-28T14:36:26.524Z,27.61
2022-08-28T14:38:55.972Z,27.73
2022-08-28T14:41:24.667Z,27.90
2022-08-28T14:43:53.910Z,28.07
2022-08-28T14:46:28.478Z,27.65
2022-08-28T14:48:59.734Z,27.21
2022-08-28T14:51:31.995Z,27.01
2022-08-28T14:54:00.695Z,26.64
2022-08-28T14:56:31.640Z,26.52
2022-08-28T14:59:01.130Z,26.82
2022-08-28T15:01:40.499Z,27.34
2022-08-28T15:04:16.686Z,27.76
2022-08-28T15:06:44.692Z,27.74
2022-08-28T15:09:13.975Z,27.42
2022-08-28T15:11:42.303Z,26.97
2022-08-28T15:14:09.968Z,26.49
2022-08-28T15:16:45.501Z,26.11
2022-08-28T15:19:17.720Z,25.85
2022-08-28T15:21:54.975Z,25.50
2022-08-28T15:24:28.560Z,25.29
2022-08-28T15:26:56.916Z,25.02
2022-08-28T15:29:24.041Z,25.12
2022-08-28T15:31:51.367Z,25.26
2022-08-28T15:34:24.220Z,25.46
2022-08-28T15:36:56.009Z,25.64
2022-08-28T15:39:47.195Z,25.98
2022-08-28T15:42:15.595Z,26.41
2022-08-28T15:44:43.292Z,26.76
2022-08-28T15:47:10.418Z,26.98
2022-08-28T15:49:44.780Z,27.12
2022-08-28T15:52:18.282Z,27.27
2022-08-28T15:54:45.318Z,27.28
2022-08-28T15:57:12.220Z,27.34
2022-08-28T15:59:48.512Z,27.62
2022-08-28T16:02:21.211Z,27.34
2022-08-28T16:04:49.232Z,27.08
2022-08-28T16:07:18.663Z,26.98
2022-08-28T16:09:45.848Z,26.81
2022-08-28T16:12:12.815Z,26.78
2022-08-28T16:14:39.797Z,26.73
2022-08-28T16:17:11.178Z,26.87
2022-08-28T16:19:40.454Z,26.89
2022-08-28T16:22:09.908Z,26.81
2022-08-28T16:24:37.687Z,26.85
2022-08-28T16:27:06.485Z,26.77
2022-08-28T16:29:36.672Z,26.63
2022-08-28T16:32:05.498Z,26.64
2022-08-28T16:34:33.482Z,26.37
2022-08-28T16:37:01.779Z,26.16
2022-08-28T16:39:28.951Z,26.13
2022-08-28T16:41:55.878Z,26.09
2022-08-28T16:44:28.268Z,25.90
2022-08-28T16:46:55.861Z,25.66
2022-08-28T16:49:24.136Z,25.64
2022-08-28T16:51:51.651Z,25.53
2022-08-28T16:54:19.147Z,25.49
2022-08-28T16:56:46.695Z,25.31
2022-08-28T16:59:17.938Z,25.32
2022-08-28T17:01:45.407Z,25.09
2022-08-28T17:04:20.434Z,24.77
2022-08-28T17:06:47.398Z,24.64
2022-08-28T17:09:14.305Z,24.66
2022-08-28T17:11:41.117Z,24.61
2022-08-28T17:14:09.076Z,24.52
2022-08-28T17:16:35.902Z,24.35
2022-08-28T17:19:02.962Z,24.29
2022-08-28T17:21:48.162Z,24.31
2022-08-28T17:24:15.031Z,24.14
2022-08-28T17:26:43.646Z,23.85
2022-08-28T17:29:11.048Z,23.67
2022-08-28T17:31:39.373Z,23.53
2022-08-28T17:34:07.544Z,23.37
2022-08-28T17:36:37.546Z,23.22
2022-08-28T17:39:10.406Z,23.10
2022-08-28T17:41:37.773Z,22.92
2022-08-28T17:44:05.917Z,22.80
2022-08-28T17:46:37.405Z,22.60
2022-08-28T17:49:07.292Z,22.43
2022-08-28T17:51:43.697Z,22.24
2022-08-28T17:54:21.662Z,22.07
2022-08-28T17:56:49.501Z,21.90
2022-08-28T17:59:16.529Z,21.80
2022-08-28T18:01:46.419Z,21.72
2022-08-28T18:04:21.595Z,21.63
2022-08-28T18:06:54.154Z,21.56
2022-08-28T18:09:23.600Z,21.46
2022-08-28T18:11:51.908Z,21.37
2022-08-28T18:14:18.914Z,21.27
2022-08-28T18:16:45.891Z,21.15
2022-08-28T18:19:13.702Z,21.03
2022-08-28T18:21:41.165Z,20.90
2022-08-28T18:24:10.109Z,20.79
2022-08-28T18:26:36.977Z,20.70
2022-08-28T18:29:03.910Z,20.64
2022-08-28T18:31:31.010Z,20.55
2022-08-28T18:33:58.032Z,20.46
2022-08-28T18:36:25.036Z,20.39
2022-08-28T18:38:53.779Z,20.30
2022-08-28T18:41:21.777Z,20.22
2022-08-28T18:43:58.299Z,20.14
2022-08-28T18:46:31.580Z,20.03
2022-08-28T18:48:59.119Z,19.91
2022-08-28T18:51:26.204Z,19.83
2022-08-28T18:53:53.214Z,19.75
2022-08-28T18:56:20.084Z,19.67
2022-08-28T18:58:47.834Z,19.58
2022-08-28T19:01:16.026Z,19.52
2022-08-28T19:03:42.969Z,19.47
2022-08-28T19:06:13.643Z,19.42
2022-08-28T19:08:41.250Z,19.35
2022-08-28T19:11:11.823Z,19.30
2022-08-28T19:13:41.021Z,19.23
2022-08-28T19:16:08.982Z,19.18
2022-08-28T19:18:36.250Z,19.12
2022-08-28T19:21:15.132Z,19.06
2022-08-28T19:23:55.398Z,18.99
2022-08-28T19:26:27.627Z,18.91
2022-08-28T19:28:56.879Z,18.84
2022-08-28T19:31:26.148Z,18.78
2022-08-28T19:33:53.874Z,18.73
2022-08-28T19:36:21.513Z,18.68
2022-08-28T19:38:48.352Z,18.64
2022-08-28T19:41:15.261Z,18.61
2022-08-28T19:43:43.414Z,18.55
2022-08-28T19:46:19.773Z,18.50
2022-08-28T19:48:52.915Z,18.44
2022-08-28T19:51:24.258Z,18.40
2022-08-28T19:53:57.964Z,18.35
2022-08-28T19:56:33.882Z,18.31
2022-08-28T19:59:04.627Z,18.27
2022-08-28T20:01:37.687Z,18.22
2022-08-28T20:04:08.485Z,18.18
2022-08-28T20:06:37.188Z,18.13
2022-08-28T20:09:08.282Z,18.08
2022-08-28T20:11:39.663Z,18.01
2022-08-28T20:14:06.854Z,17.98
2022-08-28T20:16:42.693Z,17.95
2022-08-28T20:19:12.503Z,17.89
2022-08-28T20:21:44.038Z,17.85
2022-08-28T20:24:17.612Z,17.82
2022-08-28T20:26:44.597Z,17.77
2022-08-28T20:29:13.378Z,17.75
2022-08-28T20:31:44.976Z,17.72
2022-08-28T20:34:13.198Z,17.68
2022-08-28T20:36:40.570Z,17.63
2022-08-28T20:39:09.301Z,17.60
2022-08-28T20:41:40.749Z,17.57
2022-08-28T20:44:10.562Z,17.54
2022-08-28T20:46:41.167Z,17.50
2022-08-28T20:49:14.646Z,17.47
2022-08-28T20:51:54.573Z,17.44
2022-08-28T20:54:32.363Z,17.42
2022-08-28T20:57:03.661Z,17.39
2022-08-28T20:59:39.701Z,17.36
2022-08-28T21:02:13.361Z,17.32
2022-08-28T21:04:42.533Z,17.29
2022-08-28T21:07:10.851Z,17.24
2022-08-28T21:10:04.560Z,17.20
2022-08-28T21:12:25.548Z,17.16
2022-08-28T21:14:52.957Z,17.10
2022-08-28T21:17:29.991Z,17.04
2022-08-28T21:20:02.956Z,16.99
2022-08-28T21:22:31.909Z,16.96
2022-08-28T21:24:59.991Z,16.91
2022-08-28T21:27:27.289Z,16.89
2022-08-28T21:29:59.247Z,16.85
2022-08-28T21:32:27.488Z,16.80
2022-08-28T21:34:55.118Z,16.78
2022-08-28T21:37:22.895Z,16.73
2022-08-28T21:39:49.862Z,16.70
2022-08-28T21:42:16.928Z,16.66
2022-08-28T21:44:46.105Z,16.59
2022-08-28T21:47:23.062Z,16.58
2022-08-28T21:49:56.908Z,16.55
2022-08-28T21:52:29.103Z,16.51
2022-08-28T21:55:07.749Z,16.47
2022-08-28T21:57:34.820Z,16.43
2022-08-28T22:00:03.274Z,16.37
2022-08-28T22:02:33.207Z,16.34
2022-08-28T22:05:00.264Z,16.32
2022-08-28T22:07:27.168Z,16.27
2022-08-28T22:09:54.057Z,16.25
2022-08-28T22:12:20.886Z,16.25
2022-08-28T22:14:48.160Z,16.24
2022-08-28T22:17:15.423Z,16.24
2022-08-28T22:19:42.821Z,16.23
2022-08-28T22:22:33.292Z,16.19
2022-08-28T22:25:00.240Z,16.14
2022-08-28T22:27:27.267Z,16.11
2022-08-28T22:29:54.127Z,16.09
2022-08-28T22:32:25.517Z,16.05
2022-08-28T22:34:54.622Z,16.00
2022-08-28T22:37:23.230Z,15.95
2022-08-28T22:39:50.394Z,15.92
2022-08-28T22:42:17.758Z,15.90
2022-08-28T22:44:44.690Z,15.86
2022-08-28T22:47:11.673Z,15.81
2022-08-28T22:49:39.457Z,15.77
2022-08-28T22:52:10.791Z,15.73
2022-08-28T22:54:38.212Z,15.68
2022-08-28T22:57:05.884Z,15.66
2022-08-28T22:59:34.367Z,15.61
2022-08-28T23:02:03.270Z,15.56
2022-08-28T23:04:31.052Z,15.53
2022-08-28T23:06:57.967Z,15.51
2022-08-28T23:09:24.812Z,15.49
2022-08-28T23:11:51.814Z,15.45
2022-08-28T23:14:18.906Z,15.40
2022-08-28T23:16:45.892Z,15.37
2022-08-28T23:19:13.289Z,15.34
2022-08-28T23:21:43.859Z,15.30
2022-08-28T23:24:16.349Z,15.24
2022-08-28T23:26:45.302Z,15.21
2022-08-28T23:29:13.633Z,15.18
2022-08-28T23:31:41.220Z,15.15
2022-08-28T23:34:08.753Z,15.13
2022-08-28T23:36:36.746Z,15.09
2022-08-28T23:39:06.507Z,15.05
2022-08-28T23:41:34.045Z,15.02
2022-08-28T23:44:05.230Z,14.98
2022-08-28T23:46:35.255Z,14.96
2022-08-28T23:49:02.645Z,14.93
2022-08-28T23:51:29.545Z,14.89
2022-08-28T23:53:56.458Z,14.86
2022-08-28T23:56:23.934Z,14.85
2022-08-28T23:58:55.181Z,14.83
